Time;durP1;ratioP1;P1;durP2;ratioP2;P2;SDS_P1;SDS_P2;PMS_P1;PMS_P2;Temp;Humidity;BMP_temperature;BMP_pressure;BME280_temperature;BME280_humidity;BME280_pressure;Samples;Min_cycle;Max_cycle;Signal;HPM_P1;HPM_P2
2022/07/30 00:02:10;;;;;;;6.20;3.97;;;;;;;;;;5035867;28;20619;-83
2022/07/30 00:04:36;;;;;;;5.47;3.57;;;;;;;;;;5033746;28;20202;-83
2022/07/30 00:07:03;;;;;;;36.27;7.50;;;;;;;;;;5034474;28;20198;-84
2022/07/30 00:09:30;;;;;;;25.60;6.07;;;;;;;;;;5033697;28;20227;-83
2022/07/30 00:11:58;;;;;;;87.40;12.13;;;;;;;;;;5034709;28;20195;-82
2022/07/30 00:14:25;;;;;;;20.70;4.90;;;;;;;;;;5033302;28;20199;-82
2022/07/30 00:16:52;;;;;;;12.13;4.07;;;;;;;;;;5034803;28;20365;-82
2022/07/30 00:19:19;;;;;;;4.40;4.03;;;;;;;;;;5034440;28;20213;-83
2022/07/30 00:21:46;;;;;;;3.87;3.53;;;;;;;;;;5033089;28;20669;-82
2022/07/30 00:24:12;;;;;;;4.57;3.60;;;;;;;;;;5034530;28;20217;-83
2022/07/30 00:26:39;;;;;;;3.83;3.17;;;;;;;;;;5034387;28;20615;-82
2022/07/30 00:29:07;;;;;;;5.33;3.90;;;;;;;;;;5032992;28;20727;-83
2022/07/30 00:31:34;;;;;;;3.83;3.53;;;;;;;;;;5034347;28;20661;-82
2022/07/30 00:34:01;;;;;;;4.73;3.43;;;;;;;;;;5034253;28;20210;-83
2022/07/30 00:36:28;;;;;;;5.20;3.60;;;;;;;;;;5034482;28;20199;-84
2022/07/30 00:38:55;;;;;;;4.17;3.47;;;;;;;;;;5032584;28;20642;-82
2022/07/30 00:41:21;;;;;;;5.67;3.57;;;;;;;;;;5034111;28;20547;-83
2022/07/30 00:43:48;;;;;;;3.93;3.63;;;;;;;;;;5032805;28;20190;-83
2022/07/30 00:46:16;;;;;;;6.33;3.53;;;;;;;;;;5033981;28;20202;-83
2022/07/30 00:48:44;;;;;;;4.80;3.80;;;;;;;;;;5034177;28;20344;-83
2022/07/30 00:51:10;;;;;;;5.27;3.43;;;;;;;;;;5033718;28;20201;-83
2022/07/30 00:53:37;;;;;;;3.90;3.50;;;;;;;;;;5034670;28;20203;-82
2022/07/30 00:56:05;;;;;;;21.20;5.00;;;;;;;;;;5032510;28;20202;-83
2022/07/30 00:58:32;;;;;;;30.10;4.80;;;;;;;;;;5034489;28;20223;-83
2022/07/30 01:00:59;;;;;;;4.27;3.80;;;;;;;;;;5032920;28;20202;-83
2022/07/30 01:03:27;;;;;;;46.00;7.30;;;;;;;;;;5032659;28;20198;-84
2022/07/30 01:05:54;;;;;;;7.77;3.83;;;;;;;;;;5033418;28;20202;-84
2022/07/30 01:08:21;;;;;;;6.83;4.50;;;;;;;;;;5033808;28;20226;-83
2022/07/30 01:10:48;;;;;;;4.27;3.20;;;;;;;;;;5033591;28;20194;-83
2022/07/30 01:13:14;;;;;;;7.70;3.97;;;;;;;;;;5034342;28;20264;-83
2022/07/30 01:15:41;;;;;;;4.40;4.00;;;;;;;;;;5034031;28;20229;-83
2022/07/30 01:18:10;;;;;;;7.03;4.03;;;;;;;;;;5034408;28;20237;-83
2022/07/30 01:20:40;;;;;;;6.10;4.53;;;;;;;;;;5033305;28;20207;-83
2022/07/30 01:23:14;;;;;;;4.53;4.03;;;;;;;;;;5031983;28;20740;-83
2022/07/30 01:25:55;;;;;;;4.63;4.20;;;;;;;;;;5033373;28;20206;-83
2022/07/30 01:28:24;;;;;;;4.37;3.90;;;;;;;;;;5033368;28;20222;-83
2022/07/30 01:30:52;;;;;;;4.37;3.70;;;;;;;;;;5031838;28;20210;-83
2022/07/30 01:33:20;;;;;;;8.03;3.73;;;;;;;;;;5031810;28;20194;-83
2022/07/30 01:35:48;;;;;;;3.97;3.43;;;;;;;;;;5032498;28;20199;-83
2022/07/30 01:38:20;;;;;;;4.13;3.77;;;;;;;;;;5033674;28;20249;-84
2022/07/30 01:40:48;;;;;;;3.93;3.50;;;;;;;;;;5033541;28;20202;-85
2022/07/30 01:43:18;;;;;;;3.90;3.60;;;;;;;;;;5033323;28;20252;-84
2022/07/30 01:45:45;;;;;;;4.10;3.80;;;;;;;;;;5032755;28;20199;-84
2022/07/30 01:48:13;;;;;;;5.20;4.23;;;;;;;;;;5032853;28;20665;-82
2022/07/30 01:50:43;;;;;;;8.00;4.10;;;;;;;;;;5032843;28;20293;-82
2022/07/30 01:53:10;;;;;;;5.70;3.43;;;;;;;;;;5032993;28;20198;-82
2022/07/30 01:55:40;;;;;;;4.00;3.70;;;;;;;;;;5031953;28;20199;-82
2022/07/30 01:58:08;;;;;;;6.33;4.10;;;;;;;;;;5032562;28;20643;-81
2022/07/30 02:00:38;;;;;;;4.00;3.70;;;;;;;;;;5032850;28;20203;-81
2022/07/30 02:03:07;;;;;;;4.13;3.77;;;;;;;;;;5032588;28;20202;-82
2022/07/30 02:05:35;;;;;;;5.07;4.07;;;;;;;;;;5031644;28;20207;-82
2022/07/30 02:08:05;;;;;;;5.23;3.77;;;;;;;;;;5032968;28;20202;-81
2022/07/30 02:10:36;;;;;;;4.30;3.90;;;;;;;;;;5031799;28;20198;-81
2022/07/30 02:13:05;;;;;;;22.87;5.43;;;;;;;;;;5033443;28;20199;-81
2022/07/30 02:15:36;;;;;;;9.67;3.83;;;;;;;;;;5032666;28;20222;-81
2022/07/30 02:18:17;;;;;;;82.20;10.93;;;;;;;;;;5028867;28;20226;-81
2022/07/30 02:20:47;;;;;;;56.13;9.47;;;;;;;;;;5031666;28;20210;-81
2022/07/30 02:23:15;;;;;;;15.40;5.40;;;;;;;;;;5031016;28;20199;-81
2022/07/30 02:25:47;;;;;;;6.90;3.83;;;;;;;;;;5030118;28;20220;-80
2022/07/30 02:28:15;;;;;;;7.10;3.90;;;;;;;;;;5030982;28;20199;-81
2022/07/30 02:30:50;;;;;;;9.07;4.80;;;;;;;;;;5031798;28;20546;-81
2022/07/30 02:33:19;;;;;;;31.50;6.67;;;;;;;;;;5030498;28;20206;-80
2022/07/30 02:35:46;;;;;;;11.43;5.73;;;;;;;;;;5032268;28;20875;-81
2022/07/30 02:38:14;;;;;;;13.57;5.30;;;;;;;;;;5031907;28;20230;-81
2022/07/30 02:40:42;;;;;;;11.40;4.60;;;;;;;;;;5029664;28;20202;-82
2022/07/30 02:43:09;;;;;;;4.30;3.87;;;;;;;;;;5032057;28;20206;-82
2022/07/30 02:45:37;;;;;;;4.13;3.77;;;;;;;;;;5031862;28;20205;-81
2022/07/30 02:48:06;;;;;;;35.70;7.10;;;;;;;;;;5029229;28;20217;-82
2022/07/30 02:50:35;;;;;;;55.40;9.63;;;;;;;;;;5032894;28;20236;-81
2022/07/30 02:53:03;;;;;;;35.00;7.87;;;;;;;;;;5032118;28;20198;-82
2022/07/30 02:55:31;;;;;;;18.40;6.00;;;;;;;;;;5031998;28;20205;-82
2022/07/30 02:57:59;;;;;;;6.17;4.20;;;;;;;;;;5030896;28;20226;-82
2022/07/30 03:00:27;;;;;;;4.70;4.20;;;;;;;;;;5031151;28;20200;-83
2022/07/30 03:02:54;;;;;;;6.93;3.90;;;;;;;;;;5031626;28;20202;-82
2022/07/30 03:05:21;;;;;;;31.20;7.37;;;;;;;;;;5030545;28;20201;-82
2022/07/30 03:07:49;;;;;;;19.00;6.17;;;;;;;;;;5032007;28;20209;-82
2022/07/30 03:10:17;;;;;;;17.00;4.90;;;;;;;;;;5030188;28;20199;-82
2022/07/30 03:12:45;;;;;;;6.03;3.70;;;;;;;;;;5031562;28;20206;-81
2022/07/30 03:15:12;;;;;;;5.43;4.47;;;;;;;;;;5030458;28;20206;-81
2022/07/30 03:17:43;;;;;;;7.33;4.83;;;;;;;;;;5031388;28;20230;-81
2022/07/30 03:20:13;;;;;;;8.03;3.93;;;;;;;;;;5031938;28;20206;-82
2022/07/30 03:22:42;;;;;;;5.37;4.40;;;;;;;;;;5031810;28;20199;-83
2022/07/30 03:25:14;;;;;;;4.43;4.10;;;;;;;;;;5031801;28;20285;-82
2022/07/30 03:27:43;;;;;;;7.77;3.83;;;;;;;;;;5031066;28;20245;-82
2022/07/30 03:30:11;;;;;;;4.90;4.50;;;;;;;;;;5031446;28;20256;-82
2022/07/30 03:32:38;;;;;;;5.77;4.53;;;;;;;;;;5031413;28;20209;-82
2022/07/30 03:35:08;;;;;;;6.20;4.73;;;;;;;;;;5012167;28;20244;-82
2022/07/30 03:37:37;;;;;;;8.03;4.63;;;;;;;;;;5031497;28;20222;-82
2022/07/30 03:40:06;;;;;;;7.77;4.60;;;;;;;;;;5030654;28;20611;-82
2022/07/30 03:42:35;;;;;;;10.20;5.20;;;;;;;;;;5030816;28;20206;-82
2022/07/30 03:45:04;;;;;;;8.03;4.40;;;;;;;;;;5028785;28;20545;-82
2022/07/30 03:47:33;;;;;;;7.03;3.97;;;;;;;;;;5030360;28;20201;-82
2022/07/30 03:50:00;;;;;;;5.10;4.70;;;;;;;;;;5031667;28;20198;-83
2022/07/30 03:52:27;;;;;;;29.33;7.87;;;;;;;;;;5031122;28;20588;-82
2022/07/30 03:54:55;;;;;;;4.40;4.00;;;;;;;;;;5031380;28;20210;-82
2022/07/30 03:57:22;;;;;;;4.37;4.07;;;;;;;;;;5028414;28;20201;-82
2022/07/30 03:59:51;;;;;;;4.40;4.10;;;;;;;;;;5030233;28;20248;-81
2022/07/30 04:02:18;;;;;;;12.90;4.83;;;;;;;;;;5033281;28;20237;-81
2022/07/30 04:04:45;;;;;;;9.40;4.57;;;;;;;;;;5033896;28;20202;-81
2022/07/30 04:07:13;;;;;;;8.53;4.63;;;;;;;;;;5033298;28;20205;-82
2022/07/30 04:09:40;;;;;;;4.60;4.20;;;;;;;;;;5017239;28;20206;-83
2022/07/30 04:12:07;;;;;;;4.80;4.40;;;;;;;;;;5034485;28;20578;-83
2022/07/30 04:14:40;;;;;;;15.50;5.73;;;;;;;;;;5033435;28;20595;-82
2022/07/30 04:17:13;;;;;;;27.43;7.67;;;;;;;;;;5033372;28;20265;-82
2022/07/30 04:19:44;;;;;;;17.17;5.40;;;;;;;;;;5031890;28;20535;-81
2022/07/30 04:22:12;;;;;;;9.07;4.90;;;;;;;;;;5033797;28;20205;-81
2022/07/30 04:24:41;;;;;;;4.90;4.40;;;;;;;;;;5034483;28;20209;-80
2022/07/30 04:27:08;;;;;;;14.60;5.27;;;;;;;;;;5034305;28;20203;-81
2022/07/30 04:29:35;;;;;;;6.67;4.67;;;;;;;;;;5032943;28;20673;-81
2022/07/30 04:32:03;;;;;;;8.40;5.17;;;;;;;;;;5016835;28;20249;-81
2022/07/30 04:34:31;;;;;;;7.37;4.27;;;;;;;;;;5031958;28;20198;-82
2022/07/30 04:36:58;;;;;;;8.50;4.80;;;;;;;;;;5032493;28;20208;-81
2022/07/30 04:39:25;;;;;;;5.23;4.37;;;;;;;;;;5032242;28;20288;-81
2022/07/30 04:45:14;;;;;;;6.80;4.80;;;;;;;;;;5030695;28;20190;-82
2022/07/30 04:47:41;;;;;;;18.13;14.73;;;;;;;;;;5014693;28;20195;-81
2022/07/30 04:50:10;;;;;;;131.40;94.70;;;;;;;;;;5029165;28;20203;-82
2022/07/30 04:52:37;;;;;;;50.07;37.03;;;;;;;;;;5034250;28;20202;-82
2022/07/30 04:55:14;;;;;;;15.37;13.10;;;;;;;;;;5033269;28;20202;-79
2022/07/30 04:57:42;;;;;;;9.43;7.70;;;;;;;;;;5038007;28;20685;-81
2022/07/30 05:00:10;;;;;;;12.57;8.27;;;;;;;;;;5032274;28;20237;-81
2022/07/30 05:02:40;;;;;;;16.40;12.70;;;;;;;;;;5031193;28;20206;-81
2022/07/30 05:05:10;;;;;;;21.67;18.00;;;;;;;;;;5033579;28;20202;-81
2022/07/30 05:07:37;;;;;;;18.00;11.53;;;;;;;;;;5033518;28;20687;-81
2022/07/30 05:13:26;;;;;;;7.83;7.03;;;;;;;;;;5034163;28;20534;-80
2022/07/30 05:16:02;;;;;;;7.03;5.90;;;;;;;;;;5036616;28;20712;-77
2022/07/30 05:18:29;;;;;;;8.63;6.13;;;;;;;;;;5032630;28;20225;-81
2022/07/30 05:20:58;;;;;;;11.47;7.70;;;;;;;;;;5015821;28;20249;-81
2022/07/30 05:23:25;;;;;;;30.13;26.20;;;;;;;;;;5032367;28;20256;-81
2022/07/30 05:25:52;;;;;;;72.67;46.97;;;;;;;;;;5032688;28;20194;-80
2022/07/30 05:28:21;;;;;;;250.10;167.83;;;;;;;;;;5033037;28;20210;-81
2022/07/30 05:30:48;;;;;;;259.67;187.73;;;;;;;;;;5033449;28;20340;-81
2022/07/30 05:33:15;;;;;;;166.47;118.63;;;;;;;;;;5031886;28;20203;-81
2022/07/30 05:35:42;;;;;;;219.33;137.50;;;;;;;;;;5031899;28;20198;-80
2022/07/30 05:38:10;;;;;;;361.83;262.17;;;;;;;;;;5031698;28;20716;-80
2022/07/30 05:40:37;;;;;;;160.73;101.60;;;;;;;;;;5033220;28;20692;-80
2022/07/30 05:43:05;;;;;;;45.53;29.13;;;;;;;;;;5032438;28;20730;-80
2022/07/30 05:45:32;;;;;;;149.00;75.77;;;;;;;;;;5015357;28;20203;-81
2022/07/30 05:47:59;;;;;;;422.40;246.50;;;;;;;;;;5031441;28;20289;-81
2022/07/30 05:50:25;;;;;;;245.57;140.17;;;;;;;;;;5032628;28;20202;-79
2022/07/30 05:52:54;;;;;;;22.57;16.23;;;;;;;;;;5033197;28;20199;-78
2022/07/30 05:55:23;;;;;;;20.37;12.50;;;;;;;;;;5031735;28;21971;-79
2022/07/30 05:57:50;;;;;;;10.30;7.80;;;;;;;;;;5047024;28;20260;-79
2022/07/30 06:00:18;;;;;;;11.07;8.20;;;;;;;;;;5031231;28;20218;-78
2022/07/30 06:02:45;;;;;;;7.33;5.97;;;;;;;;;;5032950;28;20209;-78
2022/07/30 06:05:12;;;;;;;4.77;4.37;;;;;;;;;;5030733;28;20225;-78
2022/07/30 06:07:39;;;;;;;5.20;4.73;;;;;;;;;;5030762;28;20561;-79
2022/07/30 06:10:07;;;;;;;9.87;5.07;;;;;;;;;;5031407;28;20673;-78
2022/07/30 06:12:35;;;;;;;5.70;4.50;;;;;;;;;;5035948;28;20234;-78
2022/07/30 06:15:03;;;;;;;11.47;5.83;;;;;;;;;;5031051;28;20194;-79
2022/07/30 06:17:30;;;;;;;7.63;4.53;;;;;;;;;;5031704;28;20231;-79
2022/07/30 06:23:19;;;;;;;6.83;4.53;;;;;;;;;;5032814;28;20614;-78
2022/07/30 06:25:46;;;;;;;5.93;4.57;;;;;;;;;;5031998;28;20213;-80
2022/07/30 06:28:15;;;;;;;8.37;4.83;;;;;;;;;;5031485;28;20203;-78
2022/07/30 06:34:04;;;;;;;4.57;4.17;;;;;;;;;;5032736;28;20277;-79
2022/07/30 06:39:52;;;;;;;6.90;4.17;;;;;;;;;;5033233;28;20198;-90
2022/07/30 06:42:21;;;;;;;4.60;4.10;;;;;;;;;;5033174;28;20210;-90
2022/07/30 06:44:50;;;;;;;6.20;4.82;;;;;;;;;;5032630;28;20213;-90
2022/07/30 06:50:40;;;;;;;6.55;3.72;;;;;;;;;;5033723;28;20179;-90
2022/07/30 06:53:08;;;;;;;4.72;3.42;;;;;;;;;;5032297;28;20222;-91
2022/07/30 06:55:36;;;;;;;3.53;3.22;;;;;;;;;;5031240;28;20217;-90
2022/07/30 06:58:04;;;;;;;6.25;3.47;;;;;;;;;;5031072;28;20202;-89
2022/07/30 07:00:33;;;;;;;3.92;3.53;;;;;;;;;;5031828;28;20226;-86
2022/07/30 07:03:00;;;;;;;5.32;3.83;;;;;;;;;;5032942;28;20233;-89
2022/07/30 07:05:28;;;;;;;4.43;3.88;;;;;;;;;;5030564;28;20209;-86
2022/07/30 07:07:55;;;;;;;4.05;3.75;;;;;;;;;;5031034;28;20237;-87
2022/07/30 07:10:22;;;;;;;3.70;3.50;;;;;;;;;;5033215;28;20213;-86
2022/07/30 07:12:59;;;;;;;12.30;4.35;;;;;;;;;;5030487;28;20214;-87
2022/07/30 07:15:54;;;;;;;3.78;3.33;;;;;;;;;;5014343;28;20673;-87
2022/07/30 07:21:43;;;;;;;3.38;3.10;;;;;;;;;;4993100;28;20207;-89
2022/07/30 07:24:10;;;;;;;3.60;3.30;;;;;;;;;;4976507;28;20196;-90
2022/07/30 07:26:37;;;;;;;4.03;3.00;;;;;;;;;;4994464;28;20204;-92
2022/07/30 07:29:05;;;;;;;5.32;2.85;;;;;;;;;;4988502;28;20196;-91
2022/07/30 07:31:34;;;;;;;6.15;3.88;;;;;;;;;;4993355;28;20223;-91
2022/07/30 07:34:01;;;;;;;3.47;3.17;;;;;;;;;;4992310;28;20215;-90
2022/07/30 07:36:28;;;;;;;3.58;3.30;;;;;;;;;;4979857;28;20208;-90
2022/07/30 07:38:56;;;;;;;4.00;3.70;;;;;;;;;;4979972;28;20243;-90
2022/07/30 07:41:25;;;;;;;3.92;3.35;;;;;;;;;;4997694;28;20208;-90
2022/07/30 07:43:51;;;;;;;4.00;3.58;;;;;;;;;;4995498;28;20208;-92
2022/07/30 07:46:18;;;;;;;3.25;2.95;;;;;;;;;;4996813;28;20203;-89
2022/07/30 07:48:47;;;;;;;4.68;3.58;;;;;;;;;;4996787;28;20207;-91
2022/07/30 07:51:14;;;;;;;4.38;3.22;;;;;;;;;;4989746;28;20212;-89
2022/07/30 07:53:41;;;;;;;3.42;3.15;;;;;;;;;;4994021;28;20737;-89
2022/07/30 07:56:08;;;;;;;3.17;2.97;;;;;;;;;;4994829;28;20200;-91
2022/07/30 07:58:35;;;;;;;4.28;3.03;;;;;;;;;;4994774;28;20204;-88
2022/07/30 08:01:02;;;;;;;4.22;3.17;;;;;;;;;;4995329;28;20201;-84
2022/07/30 08:03:29;;;;;;;3.40;3.20;;;;;;;;;;4977160;28;20277;-90
2022/07/30 08:06:00;;;;;;;3.25;2.90;;;;;;;;;;4994707;28;20204;-92
2022/07/30 08:09:12;;;;;;;3.42;3.20;;;;;;;;;;4995915;28;20207;-90
2022/07/30 08:11:40;;;;;;;5.82;3.22;;;;;;;;;;4981640;28;20288;-90
2022/07/30 08:14:07;;;;;;;3.58;3.38;;;;;;;;;;4994847;28;20208;-90
2022/07/30 08:16:34;;;;;;;3.63;3.38;;;;;;;;;;5003093;28;20234;-91
2022/07/30 08:19:01;;;;;;;3.80;3.50;;;;;;;;;;5021114;28;20229;-91
2022/07/30 08:21:30;;;;;;;3.83;3.35;;;;;;;;;;5035519;28;20198;-91
2022/07/30 08:23:58;;;;;;;4.15;3.25;;;;;;;;;;5030104;28;20210;-90
2022/07/30 08:26:25;;;;;;;3.90;3.70;;;;;;;;;;5033183;28;20198;-92
2022/07/30 08:28:53;;;;;;;4.47;4.10;;;;;;;;;;5033014;28;20194;-90
2022/07/30 08:31:20;;;;;;;5.43;3.75;;;;;;;;;;5018326;28;20206;-91
2022/07/30 08:33:47;;;;;;;4.57;4.18;;;;;;;;;;5049732;28;20217;-92
2022/07/30 08:36:15;;;;;;;7.07;4.05;;;;;;;;;;5034111;28;20203;-89
2022/07/30 08:38:44;;;;;;;4.53;3.53;;;;;;;;;;5017261;28;20203;-91
2022/07/30 08:41:12;;;;;;;4.13;3.85;;;;;;;;;;5033360;28;20665;-90
2022/07/30 08:43:39;;;;;;;5.10;3.55;;;;;;;;;;5033612;28;20207;-90
2022/07/30 08:46:10;;;;;;;6.88;3.53;;;;;;;;;;5033904;28;20213;-91
2022/07/30 08:48:37;;;;;;;4.25;3.90;;;;;;;;;;5034359;28;20198;-92
2022/07/30 08:51:06;;;;;;;4.30;4.00;;;;;;;;;;5033695;28;20206;-91
2022/07/30 08:53:34;;;;;;;3.90;3.60;;;;;;;;;;5033993;28;20210;-91
2022/07/30 08:56:04;;;;;;;3.78;3.50;;;;;;;;;;5032797;28;20211;-90
2022/07/30 08:58:33;;;;;;;5.25;3.75;;;;;;;;;;5035201;28;20198;-90
2022/07/30 09:01:01;;;;;;;5.85;3.88;;;;;;;;;;5032431;28;20229;-91
2022/07/30 09:03:28;;;;;;;8.02;4.30;;;;;;;;;;5033771;28;20199;-90
2022/07/30 09:05:56;;;;;;;8.45;4.15;;;;;;;;;;5034855;28;20202;-89
2022/07/30 09:08:23;;;;;;;7.30;3.90;;;;;;;;;;5033676;28;20685;-90
2022/07/30 09:10:50;;;;;;;4.85;3.60;;;;;;;;;;5034165;28;20207;-90
2022/07/30 09:13:40;;;;;;;4.28;3.88;;;;;;;;;;5033310;28;20206;-91
2022/07/30 09:20:03;;;;;;;3.67;3.40;;;;;;;;;;5028190;28;20310;-88
2022/07/30 09:22:42;;;;;;;4.78;4.38;;;;;;;;;;5034386;28;20380;-90
2022/07/30 09:25:09;;;;;;;4.15;3.83;;;;;;;;;;5033827;28;20288;-81
2022/07/30 09:27:45;;;;;;;4.18;3.85;;;;;;;;;;5015735;28;20260;-81
2022/07/30 09:30:14;;;;;;;4.30;4.00;;;;;;;;;;5015223;28;20289;-80
2022/07/30 09:32:49;;;;;;;4.00;3.50;;;;;;;;;;5033130;28;20202;-86
2022/07/30 09:35:16;;;;;;;3.30;3.10;;;;;;;;;;5038167;28;20198;-84
2022/07/30 09:37:44;;;;;;;4.05;3.65;;;;;;;;;;5015934;28;20194;-84
2022/07/30 09:40:13;;;;;;;3.28;3.03;;;;;;;;;;5031224;28;20221;-84
2022/07/30 09:42:41;;;;;;;7.40;4.90;;;;;;;;;;5031971;28;20209;-84
2022/07/30 09:45:10;;;;;;;3.65;3.35;;;;;;;;;;5030771;28;20669;-85
2022/07/30 09:47:39;;;;;;;3.38;3.08;;;;;;;;;;5032035;28;20616;-85
2022/07/30 09:50:09;;;;;;;5.10;3.45;;;;;;;;;;5032924;28;20199;-84
2022/07/30 09:55:58;;;;;;;3.75;3.47;;;;;;;;;;5033395;28;20173;-83
2022/07/30 09:58:38;;;;;;;4.10;3.53;;;;;;;;;;5014522;28;20293;-82
2022/07/30 10:01:04;;;;;;;4.03;3.72;;;;;;;;;;5027851;28;20634;-83
2022/07/30 10:03:35;;;;;;;3.63;3.35;;;;;;;;;;5031164;28;20206;-83
2022/07/30 10:06:02;;;;;;;3.80;3.50;;;;;;;;;;5031887;28;20207;-84
2022/07/30 10:08:40;;;;;;;3.67;3.38;;;;;;;;;;5032360;28;20209;-83
2022/07/30 10:11:07;;;;;;;3.83;3.53;;;;;;;;;;5032549;28;20204;-84
2022/07/30 10:13:35;;;;;;;3.60;3.30;;;;;;;;;;5032357;28;20205;-84
2022/07/30 10:16:03;;;;;;;4.13;3.42;;;;;;;;;;5032328;28;20209;-84
2022/07/30 10:18:31;;;;;;;3.40;3.20;;;;;;;;;;5030605;28;20222;-84
2022/07/30 10:21:01;;;;;;;3.72;3.42;;;;;;;;;;5031045;28;20234;-84
2022/07/30 10:23:31;;;;;;;4.25;3.92;;;;;;;;;;5015097;28;20199;-85
2022/07/30 10:26:00;;;;;;;3.90;3.60;;;;;;;;;;5032017;28;20691;-84
2022/07/30 10:28:28;;;;;;;3.90;3.50;;;;;;;;;;5033412;28;20206;-84
2022/07/30 10:30:56;;;;;;;4.53;3.92;;;;;;;;;;5032128;28;20229;-83
2022/07/30 10:33:25;;;;;;;3.63;3.33;;;;;;;;;;5030815;28;20234;-85
2022/07/30 10:35:52;;;;;;;5.07;3.17;;;;;;;;;;5029916;28;20205;-84
2022/07/30 10:38:23;;;;;;;4.00;3.58;;;;;;;;;;5031190;28;20676;-83
2022/07/30 10:41:00;;;;;;;3.63;3.42;;;;;;;;;;5030747;28;20219;-85
2022/07/30 10:43:49;;;;;;;3.85;3.60;;;;;;;;;;5031674;28;20282;-85
2022/07/30 10:46:24;;;;;;;3.72;3.45;;;;;;;;;;5030571;28;20574;-83
2022/07/30 10:48:56;;;;;;;3.58;3.28;;;;;;;;;;5031651;28;20677;-84
2022/07/30 10:51:23;;;;;;;5.10;3.17;;;;;;;;;;5030218;28;20194;-83
2022/07/30 10:53:51;;;;;;;3.38;3.17;;;;;;;;;;5031706;28;20210;-84
2022/07/30 10:56:20;;;;;;;3.75;3.38;;;;;;;;;;5030694;28;20219;-83
2022/07/30 10:59:02;;;;;;;5.05;3.08;;;;;;;;;;5031652;28;20213;-83
2022/07/30 11:04:36;;;;;;;3.42;3.17;;;;;;;;;;5016037;28;20198;-82
2022/07/30 11:07:28;;;;;;;5.40;3.90;;;;;;;;;;5031479;28;20230;-83
2022/07/30 11:09:59;;;;;;;3.45;3.00;;;;;;;;;;5029367;28;20260;-84
2022/07/30 11:12:55;;;;;;;10.77;4.00;;;;;;;;;;5029123;28;20680;-84
2022/07/30 11:15:22;;;;;;;3.40;3.20;;;;;;;;;;5031523;28;20206;-84
2022/07/30 11:21:19;;;;;;;3.70;3.25;;;;;;;;;;5021350;28;20271;-84
2022/07/30 11:23:47;;;;;;;3.85;3.55;;;;;;;;;;5032244;28;20225;-85
2022/07/30 11:29:50;;;;;;;3.35;3.15;;;;;;;;;;5029952;28;20185;-85
2022/07/30 11:32:31;;;;;;;3.67;3.35;;;;;;;;;;5029935;28;20574;-84
2022/07/30 11:35:18;;;;;;;3.75;3.13;;;;;;;;;;5029246;28;20203;-84
2022/07/30 11:38:06;;;;;;;3.08;2.88;;;;;;;;;;5029858;28;20274;-85
2022/07/30 11:40:34;;;;;;;3.58;3.22;;;;;;;;;;5029182;28;20218;-85
2022/07/30 11:43:23;;;;;;;3.78;3.53;;;;;;;;;;5031348;28;20199;-87
2022/07/30 11:45:53;;;;;;;5.57;3.60;;;;;;;;;;5026038;28;20202;-91
2022/07/30 11:48:21;;;;;;;3.50;3.30;;;;;;;;;;5028680;28;20210;-87
2022/07/30 11:50:49;;;;;;;3.60;3.25;;;;;;;;;;5030256;28;20677;-84
2022/07/30 11:53:19;;;;;;;3.25;3.05;;;;;;;;;;5028180;28;20601;-86
2022/07/30 11:55:51;;;;;;;3.28;3.08;;;;;;;;;;5030207;28;20199;-88
2022/07/30 11:58:26;;;;;;;3.40;3.13;;;;;;;;;;5031787;28;20593;-88
2022/07/30 12:00:56;;;;;;;3.58;3.28;;;;;;;;;;5031678;28;20225;-83
2022/07/30 12:03:25;;;;;;;3.33;3.08;;;;;;;;;;5028765;28;20194;-86
2022/07/30 12:05:52;;;;;;;3.47;3.17;;;;;;;;;;5031253;28;20199;-89
2022/07/30 12:08:19;;;;;;;3.83;3.33;;;;;;;;;;5031802;28;20207;-91
2022/07/30 12:10:56;;;;;;;3.47;3.28;;;;;;;;;;5030116;28;20698;-88
2022/07/30 12:13:26;;;;;;;4.28;3.22;;;;;;;;;;5032482;28;20234;-88
2022/07/30 12:15:55;;;;;;;4.07;3.78;;;;;;;;;;5030942;28;20209;-89
2022/07/30 12:18:28;;;;;;;3.75;3.45;;;;;;;;;;5032026;28;20260;-87
2022/07/30 12:20:56;;;;;;;3.88;3.35;;;;;;;;;;5030548;28;20230;-85
2022/07/30 12:23:23;;;;;;;3.25;3.05;;;;;;;;;;5033277;28;20630;-90
2022/07/30 12:25:53;;;;;;;4.65;3.45;;;;;;;;;;5034143;28;20289;-89
2022/07/30 12:28:21;;;;;;;3.65;3.35;;;;;;;;;;5033207;28;20252;-84
2022/07/30 12:30:49;;;;;;;3.90;3.60;;;;;;;;;;5034296;28;20222;-93
2022/07/30 12:33:18;;;;;;;4.15;3.40;;;;;;;;;;5032657;28;20222;-88
2022/07/30 12:42:51;;;;;;;3.78;3.40;;;;;;;;;;5034883;28;20177;-82
2022/07/30 12:45:29;;;;;;;3.95;3.65;;;;;;;;;;5033748;28;20290;-84
2022/07/30 12:47:56;;;;;;;4.07;3.63;;;;;;;;;;5034162;28;20202;-83
2022/07/30 12:50:26;;;;;;;4.13;3.83;;;;;;;;;;5016468;28;20209;-86
2022/07/30 12:52:56;;;;;;;7.53;4.43;;;;;;;;;;5033179;28;20692;-87
2022/07/30 12:55:31;;;;;;;4.25;3.95;;;;;;;;;;5031478;28;20264;-83
2022/07/30 12:58:00;;;;;;;4.15;3.80;;;;;;;;;;5034168;28;20210;-84
2022/07/30 13:00:49;;;;;;;4.25;3.85;;;;;;;;;;5032043;28;20227;-84
2022/07/30 13:03:21;;;;;;;3.92;3.63;;;;;;;;;;5031484;28;20272;-80
2022/07/30 13:05:50;;;;;;;3.55;3.35;;;;;;;;;;5033938;28;20203;-78
2022/07/30 13:08:17;;;;;;;4.57;4.28;;;;;;;;;;5034171;28;20695;-79
2022/07/30 13:10:58;;;;;;;4.53;4.13;;;;;;;;;;5031729;28;20202;-79
2022/07/30 13:13:25;;;;;;;4.35;4.05;;;;;;;;;;5032577;28;20213;-79
2022/07/30 13:16:00;;;;;;;4.65;4.32;;;;;;;;;;5032024;28;20206;-81
2022/07/30 13:18:28;;;;;;;5.15;3.65;;;;;;;;;;5033509;28;20233;-81
2022/07/30 13:20:57;;;;;;;4.60;3.83;;;;;;;;;;5032152;28;20311;-82
2022/07/30 13:26:45;;;;;;;4.18;3.85;;;;;;;;;;5033907;28;20228;-82
2022/07/30 13:29:13;;;;;;;4.70;4.28;;;;;;;;;;5013283;28;20253;-82
2022/07/30 13:31:41;;;;;;;4.25;3.95;;;;;;;;;;5030909;28;20745;-81
2022/07/30 13:37:31;;;;;;;5.35;4.82;;;;;;;;;;5033631;28;20212;-82
2022/07/30 13:39:58;;;;;;;4.38;3.97;;;;;;;;;;5032760;28;20203;-82
2022/07/30 13:42:25;;;;;;;4.32;4.03;;;;;;;;;;5031166;28;20234;-80
2022/07/30 13:52:13;;;;;;;4.68;4.38;;;;;;;;;;5030363;28;20665;-78
2022/07/30 14:05:24;;;;;;;5.28;4.88;;;;;;;;;;5011412;28;20250;-80
2022/07/30 14:07:51;;;;;;;4.57;4.18;;;;;;;;;;5013215;28;20211;-78
2022/07/30 14:10:20;;;;;;;4.50;4.20;;;;;;;;;;4995796;28;20199;-80
2022/07/30 14:12:48;;;;;;;5.13;4.70;;;;;;;;;;5012672;28;20195;-82
2022/07/30 14:15:15;;;;;;;5.50;4.80;;;;;;;;;;5012430;28;20195;-83
2022/07/30 14:21:05;;;;;;;5.10;4.70;;;;;;;;;;5028705;28;20291;-83
2022/07/30 14:23:49;;;;;;;6.13;4.95;;;;;;;;;;5032616;28;20325;-83
2022/07/30 14:26:16;;;;;;;4.68;4.38;;;;;;;;;;5012945;28;20207;-93
2022/07/30 14:28:44;;;;;;;5.03;4.35;;;;;;;;;;5031846;28;20199;-89
2022/07/30 14:31:13;;;;;;;7.78;4.30;;;;;;;;;;5032112;28;20636;-90
2022/07/30 14:33:40;;;;;;;5.30;4.82;;;;;;;;;;5031377;28;20203;-84
2022/07/30 14:36:10;;;;;;;7.00;4.50;;;;;;;;;;5029455;28;20205;-86
2022/07/30 14:38:38;;;;;;;4.95;4.63;;;;;;;;;;5012088;28;20221;-84
2022/07/30 14:41:07;;;;;;;5.28;4.82;;;;;;;;;;5031969;28;20655;-84
2022/07/30 14:43:34;;;;;;;5.28;4.30;;;;;;;;;;5030394;28;20285;-87
2022/07/30 14:46:02;;;;;;;6.90;4.85;;;;;;;;;;5030903;28;20205;-86
2022/07/30 14:48:29;;;;;;;4.75;4.45;;;;;;;;;;5031794;28;20669;-85
2022/07/30 14:50:56;;;;;;;4.85;4.45;;;;;;;;;;5031943;28;20206;-85
2022/07/30 14:53:24;;;;;;;4.40;4.10;;;;;;;;;;5031584;28;20221;-85
2022/07/30 14:55:51;;;;;;;4.82;4.38;;;;;;;;;;5032205;28;20569;-85
2022/07/30 14:58:18;;;;;;;4.57;4.28;;;;;;;;;;5030117;28;20199;-85
2022/07/30 15:00:46;;;;;;;4.38;4.05;;;;;;;;;;5029303;28;20206;-84
2022/07/30 15:03:13;;;;;;;5.18;4.50;;;;;;;;;;5014347;28;20210;-91
2022/07/30 15:05:40;;;;;;;4.60;4.30;;;;;;;;;;5015013;28;20202;-88
2022/07/30 15:08:08;;;;;;;4.30;4.05;;;;;;;;;;5031370;28;20542;-87
2022/07/30 15:10:37;;;;;;;6.85;4.85;;;;;;;;;;5031706;28;20209;-89
2022/07/30 15:13:04;;;;;;;5.25;4.85;;;;;;;;;;5031260;28;20202;-86
2022/07/30 15:15:33;;;;;;;5.43;4.90;;;;;;;;;;5031656;28;20696;-88
2022/07/30 15:18:01;;;;;;;4.85;4.45;;;;;;;;;;5029990;28;20673;-89
2022/07/30 15:20:28;;;;;;;7.03;4.63;;;;;;;;;;5030374;28;20199;-89
2022/07/30 15:22:55;;;;;;;5.70;4.78;;;;;;;;;;5031621;28;20222;-87
2022/07/30 15:25:23;;;;;;;4.90;4.60;;;;;;;;;;5029845;28;20743;-90
2022/07/30 15:27:53;;;;;;;6.70;4.75;;;;;;;;;;5032230;28;20687;-90
2022/07/30 15:30:20;;;;;;;4.97;4.30;;;;;;;;;;5030466;28;20199;-89
2022/07/30 15:32:48;;;;;;;4.63;4.30;;;;;;;;;;5030179;28;20195;-83
2022/07/30 15:35:15;;;;;;;10.57;5.22;;;;;;;;;;5028975;28;20198;-84
2022/07/30 15:37:42;;;;;;;4.57;4.28;;;;;;;;;;5030266;28;20202;-85
2022/07/30 15:40:10;;;;;;;5.07;4.68;;;;;;;;;;5029150;28;20198;-84
2022/07/30 15:46:00;;;;;;;5.00;4.60;;;;;;;;;;5031828;28;20159;-83
2022/07/30 15:48:53;;;;;;;4.30;4.05;;;;;;;;;;5035818;28;20214;-81
2022/07/30 15:51:20;;;;;;;5.40;4.20;;;;;;;;;;5030294;28;20198;-84
2022/07/30 15:53:47;;;;;;;5.00;4.45;;;;;;;;;;5031852;28;20201;-83
2022/07/30 15:56:14;;;;;;;5.05;4.55;;;;;;;;;;5033874;28;20207;-82
2022/07/30 15:58:42;;;;;;;5.15;4.72;;;;;;;;;;5034998;28;20202;-86
2022/07/30 16:01:10;;;;;;;6.65;4.63;;;;;;;;;;5035594;28;20199;-82
2022/07/30 16:03:38;;;;;;;4.95;4.53;;;;;;;;;;5034263;28;20256;-82
2022/07/30 16:06:05;;;;;;;4.45;4.05;;;;;;;;;;5017100;28;20199;-84
2022/07/30 16:08:32;;;;;;;6.15;4.60;;;;;;;;;;5033792;28;20198;-87
2022/07/30 16:11:02;;;;;;;6.03;4.55;;;;;;;;;;5035376;28;20207;-87